Flight Track Log - Related Links

Times and Time Zones

All times are in EDT time to prevent confusion due to time zone crossing. See the ACA796 flight status page for this flight to view local times or setup timezone preferences in your user account.

Time Position Orientation Groundspeed Altitude Reporting Facility
EDT Latitude Longitude Course Direction KTS MPH feet Rate Location/Type
Thu 07:16:59 PM 33.9450 -118.4542 56° Northeast 156 180 35,000  Level Los Angeles Center
Thu 07:18:01 PM 33.9406 -118.5092 264° West 159 183 3,400 -14,806 Descending Los Angeles Center
Thu 07:19:03 PM 33.9153 -118.5739 245° Southwest 243 280 4,400 1,680 Climbing Los Angeles Center
Thu 07:20:00 PM 34.1910 -117.9515 59° Northeast  Level FlightAware Approximate
Thu 07:20:06 PM 33.8483 -118.5389 157° South 288 331 6,900  Level Los Angeles Center
Thu 07:21:00 PM 34.2613 -117.8327 68° East  Level FlightAware Approximate
Thu 07:21:08 PM 33.8878 -118.4656 57° Northeast 295 339 9,700  Level Los Angeles Center
Thu 07:22:00 PM 34.3339 -117.7057 56° Northeast  Level FlightAware Approximate
Thu 07:22:10 PM 33.9467 -118.4144 36° Northeast 292 336 11,200  Level Los Angeles Center
Thu 07:23:12 PM 33.9939 -118.3256 57° Northeast 312 359 13,800 2,160 Climbing Los Angeles Center
Thu 07:24:15 PM 34.0550 -118.2203 55° Northeast 315 362 15,700 1,258 Climbing Los Angeles Center
Thu 07:25:16 PM 34.1128 -118.1158 56° Northeast 363 418 16,400 1,073 Climbing Los Angeles Center
Thu 07:26:18 PM 34.1853 -118.0083 51° Northeast 404 465 17,900 1,548 Climbing Los Angeles Center
Thu 07:27:20 PM 34.2614 -117.8989 50° Northeast 420 483 19,600 1,619 Climbing Los Angeles Center
Thu 07:28:24 PM 34.3383 -117.7869 50° Northeast 429 494 21,300 1,584 Climbing Los Angeles Center
Thu 07:29:25 PM 34.4228 -117.6639 50° Northeast 446 513 22,900 1,463 Climbing Los Angeles Center
Thu 07:30:27 PM 34.5022 -117.5464 51° Northeast 454 522 24,300 1,355 Climbing Los Angeles Center
Thu 07:31:29 PM 34.5833 -117.4269 50° Northeast 458 527 25,700 1,839 Climbing Los Angeles Center
Thu 07:32:31 PM 34.6772 -117.2869 51° Northeast 451 519 28,100 1,597 Climbing Los Angeles Center
Thu 07:33:33 PM 34.7556 -117.1697 51° Northeast 449 517 29,000 871 Climbing Los Angeles Center
Thu 07:34:35 PM 34.8361 -117.0503 51° Northeast 457 526 29,900 629 Climbing Los Angeles Center
Thu 07:35:37 PM 34.9186 -116.9269 51° Northeast 469 540 30,300 774 Climbing Los Angeles Center
Thu 07:36:39 PM 35.0031 -116.7992 51° Northeast 482 555 31,500 1,104 Climbing Los Angeles Center
Thu 07:37:42 PM 35.1064 -116.6467 50° Northeast 486 559 32,600 1,104 Climbing Los Angeles Center
Thu 07:38:44 PM 35.1897 -116.5217 51° Northeast 483 556 33,800 919 Climbing Los Angeles Center
Thu 07:39:46 PM 35.2731 -116.3983 50° Northeast 476 548 34,500 581 Climbing Los Angeles Center
Thu 07:40:48 PM 35.3558 -116.2725 51° Northeast 475 547 35,000 242 Climbing Los Angeles Center
Thu 07:41:50 PM 35.4378 -116.1475 51° Northeast 474 545 35,000  Level Los Angeles Center
Thu 07:42:52 PM 35.5397 -115.9975 50° Northeast 478 550 35,000  Level Los Angeles Center
Thu 07:43:54 PM 35.6225 -115.8706 51° Northeast 476 548 35,000  Level Los Angeles Center
Thu 07:44:56 PM 35.7050 -115.7475 50° Northeast 469 540 35,000  Level Los Angeles Center
Thu 07:45:58 PM 35.7872 -115.6192 52° Northeast 475 547 35,000  Level Los Angeles Center
Thu 07:47:01 PM 35.8700 -115.4911 51° Northeast 480 552 35,000  Level Los Angeles Center
Thu 07:48:03 PM 35.9694 -115.3358 52° Northeast 483 556 35,000  Level Los Angeles Center
Thu 07:49:05 PM 36.0497 -115.2086 52° Northeast 472 543 35,000  Level Los Angeles Center
Thu 07:50:07 PM 36.1303 -115.0794 52° Northeast 478 550 35,000  Level Los Angeles Center
Thu 07:51:09 PM 36.2089 -114.9469 54° Northeast 480 552 35,000  Level Los Angeles Center
Thu 07:52:11 PM 36.3047 -114.7883 53° Northeast 481 554 35,000  Level Los Angeles Center
Thu 07:53:13 PM 36.3833 -114.6544 54° Northeast 481 554 35,000  Level Los Angeles Center
Thu 07:54:15 PM 36.4642 -114.5203 53° Northeast 485 558 35,000  Level Los Angeles Center
Thu 07:55:18 PM 36.5442 -114.3867 53° Northeast 483 556 35,000  Level Los Angeles Center
Thu 07:56:20 PM 36.6244 -114.2519 53° Northeast 484 557 35,000  Level Los Angeles Center
Thu 07:57:22 PM 36.7122 -114.1033 54° Northeast 480 552 35,000  Level Los Angeles Center
Thu 07:58:24 PM 36.7975 -113.9572 54° Northeast 480 552 35,000  Level Los Angeles Center
Thu 07:59:26 PM 36.8686 -113.8356 54° Northeast 477 549 35,000  Level Los Angeles Center
Thu 08:00:28 PM 36.9483 -113.7022 53° Northeast 479 551 35,000  Level Los Angeles Center
Thu 08:01:30 PM 37.0431 -113.5397 54° Northeast 481 554 35,000  Level Los Angeles Center
Thu 08:02:32 PM 37.1208 -113.4039 54° Northeast 481 554 35,000  Level Los Angeles Center
Thu 08:03:34 PM 37.2003 -113.2692 53° Northeast 482 555 35,000  Level Los Angeles Center
Thu 08:04:37 PM 37.2783 -113.1328 54° Northeast 482 555 35,000  Level Los Angeles Center
Thu 08:05:39 PM 37.3547 -112.9975 55° Northeast 480 552 35,000  Level Los Angeles Center
Thu 08:06:41 PM 37.4475 -112.8350 54° Northeast 483 556 35,000  Level Los Angeles Center
Thu 08:07:43 PM 37.5236 -112.7008 54° Northeast 485 558 35,000  Level Los Angeles Center
Thu 08:08:45 PM 37.6019 -112.5667 54° Northeast 485 558 35,000  Level Los Angeles Center
Thu 08:09:47 PM 37.6800 -112.4300 54° Northeast 483 556 35,000  Level Los Angeles Center
Thu 08:10:42 PM 37.7581 -112.2928 54° Northeast 482 555 35,000  Level Denver Center
Thu 08:11:44 PM 37.8367 -112.1547 54° Northeast 486 559 35,000  Level Denver Center
Thu 08:12:46 PM 37.9153 -112.0156 54° Northeast 488 562 35,000  Level Denver Center
Thu 08:13:48 PM 37.9925 -111.8753 55° Northeast 488 562 35,000  Level Denver Center
Thu 08:14:50 PM 38.0861 -111.7067 55° Northeast 489 563 35,000  Level Denver Center
Thu 08:15:52 PM 38.1642 -111.5653 55° Northeast 490 564 35,000  Level Denver Center
Thu 08:16:54 PM 38.2414 -111.4250 55° Northeast 486 559 35,000  Level Denver Center
Thu 08:17:56 PM 38.3189 -111.2819 55° Northeast 490 564 35,000  Level Denver Center
Thu 08:18:58 PM 38.3958 -111.1381 56° Northeast 492 566 35,000  Level Denver Center
Thu 08:20:00 PM 38.4900 -110.9653 55° Northeast 495 570 35,000  Level Denver Center
Thu 08:21:02 PM 38.5639 -110.8197 57° Northeast 497 572 35,000  Level Denver Center
Thu 08:22:04 PM 38.6383 -110.6811 55° Northeast 496 571 35,000  Level Denver Center
Thu 08:23:06 PM 38.7264 -110.5203 55° Northeast 494 568 35,000  Level Denver Center
Thu 08:24:08 PM 38.8011 -110.3811 55° Northeast 496 571 35,000  Level Denver Center
Thu 08:25:11 PM 38.8856 -110.2158 57° Northeast 497 572 35,000  Level Denver Center
Thu 08:26:13 PM 38.9606 -110.0756 55° Northeast 496 571 35,000  Level Denver Center
Thu 08:27:15 PM 39.0397 -109.9039 59° Northeast 500 575 35,000  Level Denver Center
Thu 08:28:17 PM 39.0994 -109.7456 64° Northeast 513 590 35,000  Level Denver Center
Thu 08:29:19 PM 39.1739 -109.5622 62° Northeast 518 596 35,000  Level Denver Center
Thu 08:30:21 PM 39.2358 -109.4078 63° Northeast 508 585 35,000  Level Denver Center
Thu 08:31:23 PM 39.3061 -109.2283 63° Northeast 501 577 35,000  Level Denver Center
Thu 08:32:25 PM 39.3683 -109.0725 63° Northeast 510 587 35,000  Level Denver Center
Thu 08:33:27 PM 39.4397 -108.8875 63° Northeast 516 594 35,000  Level Denver Center
Thu 08:34:29 PM 39.5006 -108.7292 63° Northeast 521 600 35,000 48 Level Denver Center
Thu 08:35:31 PM 39.5717 -108.5453 63° Northeast 522 601 35,100  Climbing Denver Center
Thu 08:36:33 PM 39.6311 -108.3867 64° Northeast 517 595 35,000 -48 Descending Denver Center
Thu 08:37:35 PM 39.7011 -108.1992 64° Northeast 517 595 35,000  Level Denver Center
Thu 08:38:37 PM 39.7586 -108.0400 65° Northeast 507 583 35,000  Level Denver Center
Thu 08:39:39 PM 39.8281 -107.8525 64° Northeast 515 593 35,000  Level Denver Center
Thu 08:40:41 PM 39.8864 -107.6925 65° Northeast 512 589 35,000  Level Denver Center
Thu 08:41:43 PM 39.9567 -107.5061 64° Northeast 514 592 35,000  Level Denver Center
Thu 08:42:46 PM 40.0156 -107.3458 64° Northeast 512 589 35,000  Level Denver Center
Thu 08:43:48 PM 40.0833 -107.1608 64° Northeast 507 583 35,000  Level Denver Center
Thu 08:44:50 PM 40.1419 -107.0019 64° Northeast 508 585 35,000  Level Denver Center
Thu 08:45:52 PM 40.2094 -106.8125 65° Northeast 513 590 35,000 242 Level Denver Center
Thu 08:46:54 PM 40.2717 -106.6442 64° Northeast 512 589 35,500 581 Climbing Denver Center
Thu 08:47:56 PM 40.3258 -106.4922 65° Northeast 510 587 36,200 581 Climbing Denver Center
Thu 08:48:58 PM 40.3911 -106.3031 66° East 510 587 36,700 387 Climbing Denver Center
Thu 08:50:00 PM 40.4572 -106.1186 65° Northeast 510 587 37,000 145 Climbing Denver Center
Thu 08:51:02 PM 40.5172 -105.9472 65° Northeast 515 593 37,000  Level Denver Center
Thu 08:52:04 PM 40.5794 -105.7769 64° Northeast 516 594 37,000  Level Denver Center
Thu 08:53:06 PM 40.6428 -105.6053 64° Northeast 518 596 37,000  Level Denver Center
Thu 08:54:08 PM 40.7042 -105.4356 64° Northeast 514 592 37,000  Level Denver Center
Thu 08:55:10 PM 40.7656 -105.2653 64° Northeast 512 589 37,000  Level Denver Center
Thu 08:56:24 PM 40.8275 -105.0942 64° Northeast 514 592 37,000  Level Denver Center
Thu 08:57:27 PM 40.9125 -104.8561 65° Northeast 511 588 37,000  Level Denver Center
Thu 08:58:29 PM 40.9739 -104.6872 64° Northeast 508 585 37,000  Level Denver Center
Thu 08:59:31 PM 41.0325 -104.5158 66° East 518 596 37,000  Level Denver Center
Thu 09:00:33 PM 41.0992 -104.3258 65° Northeast 511 588 37,000  Level Denver Center
Thu 09:01:35 PM 41.1561 -104.1625 65° Northeast 511 588 37,000  Level Denver Center
Thu 09:02:37 PM 41.2211 -103.9739 65° Northeast 507 583 37,000  Level Denver Center
Thu 09:03:39 PM 41.2769 -103.8122 65° Northeast 504 580 37,000  Level Denver Center
Thu 09:04:41 PM 41.3406 -103.6247 66° East 500 575 37,000  Level Denver Center
Thu 09:05:43 PM 41.3953 -103.4658 65° Northeast 497 572 37,000 -48 Level Denver Center
Thu 09:06:45 PM 41.4586 -103.2789 66° East 497 572 36,900  Descending Denver Center
Thu 09:07:47 PM 41.5133 -103.1158 66° East 504 580 37,000 48 Climbing Denver Center
Thu 09:08:49 PM 41.5758 -102.9269 66° East 501 577 37,000  Level Denver Center
Thu 09:09:52 PM 41.6303 -102.7622 66° East 506 582 37,000  Level Denver Center
Thu 09:10:54 PM 41.6894 -102.5814 66° East 508 585 37,000  Level Denver Center
Thu 09:11:56 PM 41.7483 -102.4036 66° East 510 587 37,000  Level Denver Center
Thu 09:12:58 PM 41.8081 -102.2206 66° East 510 587 37,000  Level Denver Center
Thu 09:14:00 PM 41.8619 -102.0522 67° East 511 588 37,000  Level Denver Center
Thu 09:15:02 PM 41.9247 -101.8581 66° East 507 583 37,000  Level Denver Center
Thu 09:16:04 PM 41.9792 -101.6911 66° East 508 585 37,000  Level Denver Center
Thu 09:17:06 PM 42.0383 -101.5008 67° East 497 572 37,000  Level Denver Center
Thu 09:18:08 PM 42.0906 -101.3358 67° East 498 573 37,000  Level Denver Center
Thu 09:19:10 PM 42.1494 -101.1458 67° East 493 567 37,000  Level Denver Center
Thu 09:20:12 PM 42.2008 -100.9817 67° East 494 568 37,000  Level Denver Center
Thu 09:21:14 PM 42.2592 -100.7919 67° East 488 562 37,000  Level Denver Center
Thu 09:22:16 PM 42.3097 -100.6267 67° East 495 570 37,000  Level Denver Center
Thu 09:23:18 PM 42.3594 -100.4603 68° East 497 572 37,000  Level Denver Center
Thu 09:24:20 PM 42.4169 -100.2650 68° East 498 573 37,000  Level Denver Center
Thu 09:25:22 PM 42.4669 -100.0997 68° East 498 573 37,000  Level Denver Center
Thu 09:26:24 PM 42.5161 -99.9108 70° East 492 566 37,000  Level Denver Center
Thu 09:27:26 PM 42.5494 -99.7297 76° East 492 566 37,000  Level Denver Center
Thu 09:28:28 PM 42.5844 -99.5508 75° East 491 565 37,000  Level Denver Center
Thu 09:29:30 PM 42.6192 -99.3706 75° East 493 567 37,000  Level Denver Center
Thu 09:30:32 PM 42.6531 -99.1911 76° East 490 564 37,000  Level Denver Center
Thu 09:31:34 PM 42.6939 -98.9756 75° East 488 562 37,000  Level Denver Center
Thu 09:32:36 PM 42.7269 -98.7950 76° East 490 564 37,000  Level Denver Center
Thu 09:34:06 PM 42.7736 -98.5453 76° East 487 560 37,000  Level Minneapolis Center
Thu 09:35:07 PM 42.8050 -98.3656 77° East 488 562 37,000  Level Minneapolis Center
Thu 09:36:09 PM 42.8417 -98.1542 77° East 489 563 37,000  Level Minneapolis Center
Thu 09:37:11 PM 42.8736 -97.9742 76° East 490 564 37,000  Level Minneapolis Center
Thu 09:38:13 PM 42.9028 -97.7967 77° East 486 559 37,000  Level Minneapolis Center
Thu 09:39:14 PM 42.9333 -97.6181 77° East 486 559 37,000  Level Minneapolis Center
Thu 09:40:16 PM 42.9650 -97.4408 76° East 485 558 37,000  Level Minneapolis Center
Thu 09:41:18 PM 42.9967 -97.2647 76° East 482 555 37,000  Level Minneapolis Center
Thu 09:42:19 PM 43.0264 -97.0850 77° East 486 559 37,000  Level Minneapolis Center
Thu 09:43:21 PM 43.0622 -96.8719 77° East 484 557 37,000  Level Minneapolis Center
Thu 09:44:35 PM 43.0978 -96.6578 77° East 484 557 37,000  Level Minneapolis Center
Thu 09:45:37 PM 43.1258 -96.4803 78° East 482 555 37,000  Level Minneapolis Center
Thu 09:46:38 PM 43.1547 -96.3036 77° East 479 551 37,000  Level Minneapolis Center
Thu 09:47:40 PM 43.1833 -96.1269 77° East 479 551 37,000  Level Minneapolis Center
Thu 09:48:41 PM 43.2111 -95.9492 78° East 481 554 37,000  Level Minneapolis Center
Thu 09:49:43 PM 43.2447 -95.7353 78° East 481 554 37,000  Level Minneapolis Center
Thu 09:50:45 PM 43.2742 -95.5561 77° East 483 556 37,000  Level Minneapolis Center
Thu 09:51:46 PM 43.3008 -95.3750 79° East 486 559 37,000  Level Minneapolis Center
Thu 09:52:48 PM 43.3453 -95.2031 70° East 487 560 37,000  Level Minneapolis Center
Thu 09:53:49 PM 43.4033 -95.0389 64° Northeast 482 555 37,000  Level Minneapolis Center
Thu 09:54:51 PM 43.4603 -94.8717 65° Northeast 484 557 37,000  Level Minneapolis Center
Thu 09:55:52 PM 43.5183 -94.7067 64° Northeast 483 556 37,000  Level Minneapolis Center
Thu 09:56:54 PM 43.5397 -94.4886 82° East 488 562 37,000  Level Minneapolis Center
Thu 09:57:55 PM 43.5439 -94.3039 88° East 485 558 37,000  Level Minneapolis Center
Thu 09:58:56 PM 43.5483 -94.1222 88° East 485 558 37,000  Level Minneapolis Center
Thu 09:59:58 PM 43.5528 -93.9356 88° East 489 563 37,000  Level Minneapolis Center
Thu 10:00:59 PM 43.5561 -93.7500 89° East 489 563 37,000  Level Minneapolis Center
Thu 10:02:01 PM 43.5594 -93.5647 89° East 488 562 37,000  Level Minneapolis Center
Thu 10:03:02 PM 43.5631 -93.3786 88° East 489 563 37,000  Level Minneapolis Center
Thu 10:04:03 PM 43.5669 -93.1578 89° East 485 558 37,000  Level Minneapolis Center
Thu 10:05:05 PM 43.5689 -93.0275 89° East 485 558 37,000  Level Minneapolis Center
Thu 10:06:06 PM 43.5717 -92.8081 89° East 483 556 37,000  Level Minneapolis Center
Thu 10:07:08 PM 43.5744 -92.6239 89° East 484 557 37,000  Level Minneapolis Center
Thu 10:08:09 PM 43.5781 -92.4000 89° East 490 564 37,000  Level Minneapolis Center
Thu 10:09:11 PM 43.5794 -92.2131 89° East 489 563 37,000 49 Level Minneapolis Center
Thu 10:10:12 PM 43.5817 -92.0269 89° East 489 563 37,100  Climbing Minneapolis Center
Thu 10:11:13 PM 43.5833 -91.8433 89° East 482 555 37,000 -49 Descending Minneapolis Center
Thu 10:12:15 PM 43.5839 -91.6619 90° East 478 550 37,000  Level Minneapolis Center
Thu 10:13:16 PM 43.5842 -91.4806 90° East 475 547 37,000  Level Minneapolis Center
Thu 10:14:18 PM 43.5847 -91.2986 90° East 477 549 37,000  Level Minneapolis Center
Thu 10:15:19 PM 43.5850 -91.1175 90° East 475 547 37,000  Level Minneapolis Center
Thu 10:16:21 PM 43.5839 -90.9000 90° East 476 548 37,000  Level Minneapolis Center
Thu 10:17:22 PM 43.5814 -90.7189 91° East 474 545 37,000  Level Minneapolis Center
Thu 10:18:24 PM 43.5800 -90.5364 91° East 478 550 37,000  Level Minneapolis Center
Thu 10:19:26 PM 43.5783 -90.3542 91° East 479 551 37,000  Level Minneapolis Center
Thu 10:20:27 PM 43.5744 -90.1503 91° East 476 548 37,000  Level Minneapolis Center
Thu 10:21:40 PM 43.5697 -89.9383 92° East 476 548 37,000  Level Chicago Center
Thu 10:22:42 PM 43.5675 -89.7561 91° East 475 547 37,000  Level Chicago Center
Thu 10:23:43 PM 43.5631 -89.5742 92° East 475 547 37,000  Level Chicago Center
Thu 10:24:45 PM 43.5619 -89.3922 90° East 473 544 37,000  Level Chicago Center
Thu 10:25:46 PM 43.5586 -89.2122 91° East 470 541 37,000  Level Chicago Center
Thu 10:26:47 PM 43.5553 -89.0019 91° East 469 540 37,000  Level Chicago Center
Thu 10:27:49 PM 43.5514 -88.8225 92° East 469 540 37,000  Level Chicago Center
Thu 10:28:50 PM 43.5492 -88.6394 91° East 471 542 37,000  Level Chicago Center
Thu 10:29:52 PM 43.5417 -88.4500 93° East 480 552 37,000  Level Chicago Center
Thu 10:30:53 PM 43.5392 -88.2611 91° East 482 555 37,000  Level Chicago Center
Thu 10:31:55 PM 43.5333 -88.0792 92° East 474 545 37,000  Level Chicago Center
Thu 10:32:56 PM 43.5300 -87.8956 91° East 478 550 37,000  Level Chicago Center
Thu 10:33:58 PM 43.5244 -87.7122 92° East 478 550 37,000  Level Chicago Center
Thu 10:34:59 PM 43.5197 -87.5328 92° East 470 541 37,000  Level Chicago Center
Thu 10:36:00 PM 43.5133 -87.3353 92° East 477 549 37,000  Level Chicago Center
Thu 10:37:02 PM 43.5075 -87.1533 92° East 478 550 37,000  Level Chicago Center
Thu 10:38:03 PM 43.4992 -86.9714 94° East 477 549 37,000  Level Chicago Center
Thu 10:39:04 PM 43.4928 -86.7894 93° East 477 549 37,000  Level Chicago Center
Thu 10:40:06 PM 43.4847 -86.6081 93° East 475 547 37,000  Level Chicago Center
Thu 10:41:08 PM 43.4778 -86.4250 93° East 477 549 37,000  Level Chicago Center
Thu 10:42:08 PM 43.4700 -86.2408 93° East 479 551 37,000  Level Chicago Center
Thu 10:43:10 PM 43.4603 -86.0558 94° East 481 554 37,000  Level Chicago Center
Thu 10:44:11 PM 43.4514 -85.8714 94° East 480 552 37,000  Level Chicago Center
Thu 10:45:13 PM 43.4411 -85.6886 94° East 478 550 37,000  Level Chicago Center
Thu 10:46:13 PM 43.4325 -85.5075 94° East 474 545 37,000  Level Chicago Center
Thu 10:47:15 PM 43.4214 -85.2917 94° East 470 541 37,000  Level Chicago Center
Thu 10:48:16 PM 43.4119 -85.1139 94° East 467 537 37,000  Level Chicago Center
Thu 10:49:18 PM 43.4019 -84.9342 94° East 469 540 37,000  Level Chicago Center
Thu 10:50:19 PM 43.3908 -84.7556 95° East 469 540 37,000  Level Chicago Center
Thu 10:51:20 PM 43.3808 -84.5767 94° East 469 540 37,000  Level Chicago Center
Thu 10:52:21 PM 43.3694 -84.3992 95° East 467 537 37,000  Level Chicago Center
Thu 10:53:22 PM 43.3600 -84.2208 94° East 469 540 37,000  Level Chicago Center
Thu 10:54:24 PM 43.3497 -84.0428 94° East 468 539 37,000 -51 Level Chicago Center
Thu 10:55:20 PM 43.3167 -83.8500 103° East 470 541 36,900 -828 Descending Toronto Center
Thu 10:56:20 PM 43.3167 -83.6667 90° East 470 541 35,400 -1,500 Descending Toronto Center
Thu 10:57:20 PM 43.3000 -83.4833 97° East 480 552 33,900 -1,400 Descending Toronto Center
Thu 10:58:20 PM 43.2833 -83.3000 97° East 490 564 32,600 -1,450 Descending Toronto Center
Thu 10:59:20 PM 43.2833 -83.1167 90° East 490 564 31,000 -1,450 Descending Toronto Center
Thu 11:00:20 PM 43.2667 -82.9333 97° East 500 575 29,700 -1,000 Descending Toronto Center
Thu 11:01:20 PM 43.2500 -82.7167 96° East 500 575 29,000 -750 Descending Toronto Center
Thu 11:02:20 PM 43.2667 -82.5667 81° East 490 564 28,200 -1,150 Descending Toronto Center
Thu 11:03:20 PM 43.2833 -82.3667 83° East 480 552 26,700 -1,400 Descending Toronto Center
Thu 11:04:20 PM 43.2833 -82.2000 90° East 470 541 25,400 -1,100 Descending Toronto Center
Thu 11:05:20 PM 43.3000 -82.0167 83° East 460 529 24,500 -950 Descending Toronto Center
Thu 11:06:20 PM 43.3333 -81.8333 76° East 450 518 23,500 -950 Descending Toronto Center
Thu 11:07:20 PM 43.3500 -81.6667 82° East 450 518 22,600 -950 Descending Toronto Center
Thu 11:08:20 PM 43.3500 -81.4833 90° East 450 518 21,600 -1,000 Descending Toronto Center
Thu 11:09:20 PM 43.3667 -81.3333 81° East 440 506 20,600 -1,000 Descending Toronto Center
Thu 11:10:20 PM 43.3833 -81.1667 82° East 440 506 19,600 -950 Descending Toronto Center
Thu 11:11:20 PM 43.3833 -81.0167 90° East 430 495 18,700 -800 Descending Toronto Center
Thu 11:12:20 PM 43.4000 -80.8500 82° East 420 483 18,000 -800 Descending Toronto Center
Thu 11:13:20 PM 43.4333 -80.6833 75° East 420 483 17,100 -950 Descending Toronto Center
Thu 11:14:20 PM 43.4333 -80.5333 90° East 410 472 16,100 -1,000 Descending Toronto Center
Thu 11:15:20 PM 43.4500 -80.3667 82° East 400 460 15,100 -900 Descending Toronto Center
Thu 11:16:20 PM 43.4833 -80.2500 68° East 380 437 14,300 -900 Descending Toronto Center
Thu 11:17:20 PM 43.5167 -80.1167 71° East 370 426 13,300 -1,600 Descending Toronto Center
Thu 11:18:20 PM 43.5500 -79.9833 71° East 380 437 11,100 -1,150 Descending Toronto Center
Thu 11:19:20 PM 43.5833 -79.8333 73° East 370 426 11,000 -50 Descending Toronto Center
Thu 11:20:20 PM 43.6167 -79.7000 71° East 360 414 11,000 -300 Level Toronto Center
Thu 11:21:20 PM 43.6333 -79.5833 79° East 330 380 10,400 -1,050 Descending Toronto Center
Thu 11:22:20 PM 43.6500 -79.4667 79° East 300 345 8,900 -1,550 Descending Toronto Center
Thu 11:23:20 PM 43.7000 -79.4000 44° Northeast 290 334 7,300 -1,550 Descending Toronto Center
Thu 11:24:20 PM 43.7500 -79.3333 44° Northeast 280 322 5,800 -1,550 Descending Toronto Center
Thu 11:25:20 PM 43.8000 -79.3500 346° North 240 276 4,200 -900 Descending Toronto Center
Thu 11:26:20 PM 43.7667 -79.4333 241° Southwest 210 242 4,000 -700 Descending Toronto Center
Thu 11:27:20 PM 43.7333 -79.4667 216° Southwest 190 219 2,800 -1,200 Descending Toronto Center

Login

Don't have an account? Register now (free) for customized features, flight alerts, and more!